createdAt,value
2018-06-08T00:01:33.271Z,16.80
2018-06-08T00:04:02.463Z,16.80
2018-06-08T00:06:31.508Z,16.80
2018-06-08T00:09:00.571Z,16.80
2018-06-08T00:11:29.595Z,16.80
2018-06-08T00:13:58.671Z,16.80
2018-06-08T00:16:27.684Z,16.80
2018-06-08T00:18:56.769Z,16.80
2018-06-08T00:21:25.851Z,16.70
2018-06-08T00:23:54.899Z,16.70
2018-06-08T00:26:23.975Z,16.80
2018-06-08T00:28:53.079Z,16.80
2018-06-08T00:31:22.130Z,16.80
2018-06-08T00:33:51.135Z,16.80
2018-06-08T00:36:20.234Z,16.80
2018-06-08T00:38:49.288Z,16.80
2018-06-08T00:41:18.355Z,16.80
2018-06-08T00:43:47.377Z,16.80
2018-06-08T00:46:16.467Z,16.80
2018-06-08T00:48:45.556Z,16.80
2018-06-08T00:51:14.566Z,16.80
2018-06-08T00:53:43.600Z,16.80
2018-06-08T00:56:23.764Z,16.80
2018-06-08T00:58:52.851Z,16.80
2018-06-08T01:01:22.401Z,16.70
2018-06-08T01:03:51.437Z,16.70
2018-06-08T01:06:20.472Z,16.70
2018-06-08T01:08:49.518Z,16.70
2018-06-08T01:11:19.030Z,16.70
2018-06-08T01:13:48.083Z,16.70
2018-06-08T01:16:17.147Z,16.70
2018-06-08T01:18:46.157Z,16.70
2018-06-08T01:21:15.220Z,16.70
2018-06-08T01:23:44.239Z,16.70
2018-06-08T01:26:13.259Z,16.70
2018-06-08T01:28:42.265Z,16.70
2018-06-08T01:31:11.320Z,16.60
2018-06-08T01:33:40.880Z,16.60
2018-06-08T01:36:10.047Z,16.60
2018-06-08T01:38:39.140Z,16.60
2018-06-08T01:41:08.184Z,16.50
2018-06-08T01:43:37.229Z,16.50
2018-06-08T01:46:06.250Z,16.50
2018-06-08T01:51:03.903Z,16.40
2018-06-08T01:53:32.959Z,16.30
2018-06-08T01:56:02.054Z,16.30
2018-06-08T01:58:31.095Z,16.30
2018-06-08T02:01:00.197Z,16.30
2018-06-08T02:03:29.215Z,16.30
2018-06-08T02:05:58.258Z,16.30
2018-06-08T02:08:27.309Z,16.20
2018-06-08T02:10:56.360Z,16.20
2018-06-08T02:13:25.393Z,16.20
2018-06-08T02:15:54.515Z,16.20
2018-06-08T02:18:23.562Z,16.20
2018-06-08T02:20:52.563Z,16.20
2018-06-08T02:23:21.597Z,16.20
2018-06-08T02:25:50.657Z,16.20
2018-06-08T02:28:19.709Z,16.20
2018-06-08T02:30:48.761Z,16.20
2018-06-08T02:33:17.792Z,16.20
2018-06-08T02:35:47.050Z,16.10
2018-06-08T02:38:16.144Z,16.10
2018-06-08T02:40:45.147Z,16.10
2018-06-08T02:43:14.181Z,16.10
2018-06-08T02:45:43.242Z,16.10
2018-06-08T02:48:12.286Z,16.00
2018-06-08T02:50:41.367Z,16.00
2018-06-08T02:53:10.384Z,16.00
2018-06-08T02:55:39.440Z,16.00
2018-06-08T02:58:08.510Z,16.00
2018-06-08T03:00:37.552Z,15.90
2018-06-08T03:03:06.575Z,16.00
2018-06-08T03:05:35.643Z,15.90
2018-06-08T03:08:05.143Z,15.90
2018-06-08T03:10:34.267Z,15.90
2018-06-08T03:13:03.525Z,15.90
2018-06-08T03:15:32.568Z,15.90
2018-06-08T03:18:01.617Z,15.90
2018-06-08T03:20:30.610Z,15.80
2018-06-08T03:25:28.204Z,15.70
2018-06-08T03:27:57.260Z,15.80
2018-06-08T03:30:26.291Z,15.80
2018-06-08T03:32:55.319Z,15.70
2018-06-08T03:35:24.312Z,15.70
2018-06-08T03:37:53.393Z,15.70
2018-06-08T03:40:22.380Z,15.70
2018-06-08T03:42:51.383Z,15.60
2018-06-08T03:45:20.431Z,15.60
2018-06-08T03:47:49.689Z,15.60
2018-06-08T03:50:18.757Z,15.70
2018-06-08T03:52:47.751Z,15.70
2018-06-08T03:55:16.799Z,15.70
2018-06-08T03:57:45.832Z,15.70
2018-06-08T04:00:14.913Z,15.70
2018-06-08T04:02:43.962Z,15.70
2018-06-08T04:05:13.031Z,15.70
2018-06-08T04:07:42.062Z,15.70
2018-06-08T04:10:11.094Z,15.70
2018-06-08T04:12:40.240Z,15.80
2018-06-08T04:15:09.315Z,15.90
2018-06-08T04:17:40.477Z,15.90
2018-06-08T04:20:09.529Z,15.90
2018-06-08T04:22:38.583Z,16.00
2018-06-08T04:25:07.616Z,16.10
2018-06-08T04:27:36.635Z,16.00
2018-06-08T04:30:05.772Z,16.00
2018-06-08T04:32:34.817Z,16.10
2018-06-08T04:35:03.999Z,16.10
2018-06-08T04:37:33.078Z,16.10
2018-06-08T04:40:02.123Z,16.20
2018-06-08T04:42:31.140Z,16.20
2018-06-08T04:45:00.215Z,16.30
2018-06-08T04:47:29.223Z,16.40
2018-06-08T04:49:58.267Z,16.40
2018-06-08T04:52:27.280Z,16.50
2018-06-08T04:54:56.297Z,16.50
2018-06-08T04:57:25.379Z,16.60
2018-06-08T04:59:54.408Z,16.60
2018-06-08T05:02:23.465Z,16.70
2018-06-08T05:04:52.531Z,16.60
2018-06-08T05:07:21.576Z,16.70
2018-06-08T05:09:50.607Z,16.70
2018-06-08T05:12:19.639Z,16.80
2018-06-08T05:14:48.753Z,16.80
2018-06-08T05:17:17.779Z,16.80
2018-06-08T05:19:46.815Z,16.90
2018-06-08T05:22:15.864Z,17.00
2018-06-08T05:24:44.891Z,17.10
2018-06-08T05:27:13.945Z,17.10
2018-06-08T05:29:43.046Z,17.20
2018-06-08T05:32:12.043Z,17.20
2018-06-08T05:34:41.089Z,17.30
2018-06-08T05:37:10.123Z,17.30
2018-06-08T05:39:39.206Z,17.40
2018-06-08T05:42:08.272Z,17.40
2018-06-08T05:44:37.368Z,17.50
2018-06-08T05:47:06.491Z,17.50
2018-06-08T05:49:35.501Z,17.60
2018-06-08T05:52:04.593Z,17.60
2018-06-08T05:54:34.066Z,17.60
2018-06-08T05:57:03.123Z,17.70
2018-06-08T05:59:32.154Z,17.70
2018-06-08T06:02:01.263Z,17.70
2018-06-08T06:04:30.976Z,17.70
2018-06-08T06:06:59.982Z,17.70
2018-06-08T06:09:29.693Z,17.70
2018-06-08T06:11:58.736Z,17.80
2018-06-08T06:14:27.739Z,17.80
2018-06-08T06:16:56.809Z,17.70
2018-06-08T06:19:25.842Z,17.80
2018-06-08T06:21:54.931Z,17.80
2018-06-08T06:24:23.935Z,17.90
2018-06-08T06:26:52.983Z,17.90
2018-06-08T06:29:22.016Z,18.00
2018-06-08T06:31:51.011Z,17.90
2018-06-08T06:34:20.736Z,18.00
2018-06-08T06:39:18.331Z,18.10
2018-06-08T06:41:47.372Z,18.10
2018-06-08T06:44:17.169Z,18.20
2018-06-08T06:46:46.432Z,18.20
2018-06-08T06:49:15.766Z,18.40
2018-06-08T06:51:44.807Z,18.40
2018-06-08T06:54:13.838Z,18.50
2018-06-08T06:56:42.969Z,18.50
2018-06-08T06:59:12.090Z,18.60
2018-06-08T07:01:41.140Z,18.80
2018-06-08T07:04:10.163Z,19.20
2018-06-08T07:06:39.283Z,19.70
2018-06-08T07:09:09.544Z,20.10
2018-06-08T07:11:38.603Z,20.20
2018-06-08T07:14:07.690Z,20.50
2018-06-08T07:16:37.534Z,20.90
2018-06-08T07:19:06.601Z,21.10
2018-06-08T07:21:35.899Z,21.10
2018-06-08T07:24:04.952Z,21.30
2018-06-08T07:26:34.704Z,21.70
2018-06-08T07:29:03.765Z,21.90
2018-06-08T07:31:32.915Z,22.10
2018-06-08T07:34:01.950Z,21.90
2018-06-08T07:36:31.439Z,22.00
2018-06-08T07:39:00.470Z,22.30
2018-06-08T07:41:29.539Z,22.60
2018-06-08T07:43:58.546Z,22.40
2018-06-08T07:46:27.587Z,22.20
2018-06-08T07:48:56.603Z,22.20
2018-06-08T07:51:25.703Z,22.40
2018-06-08T07:53:54.738Z,22.60
2018-06-08T07:56:23.840Z,22.80
2018-06-08T07:58:52.886Z,23.00
2018-06-08T08:01:21.907Z,23.20
2018-06-08T08:03:50.928Z,23.40
2018-06-08T08:06:20.008Z,23.40
2018-06-08T08:08:49.007Z,23.40
2018-06-08T08:11:18.124Z,23.60
2018-06-08T08:13:47.135Z,23.80
2018-06-08T08:16:16.190Z,23.70
2018-06-08T08:18:45.222Z,23.80
2018-06-08T08:21:14.297Z,23.90
2018-06-08T08:23:43.379Z,24.10
2018-06-08T08:26:12.520Z,24.30
2018-06-08T08:28:41.567Z,24.20
2018-06-08T08:31:10.643Z,24.10
2018-06-08T08:33:39.687Z,24.20
2018-06-08T08:36:08.706Z,24.30
2018-06-08T08:38:37.908Z,24.30
2018-06-08T08:41:07.048Z,24.50
2018-06-08T09:29:02.050Z,25.00
2018-06-08T09:31:31.091Z,25.30
2018-06-08T09:34:00.125Z,25.60
2018-06-08T09:36:29.234Z,26.00
2018-06-08T09:38:58.431Z,25.90
2018-06-08T09:41:27.588Z,25.40
2018-06-08T09:43:56.683Z,25.10
2018-06-08T09:46:25.783Z,25.00
2018-06-08T09:48:54.783Z,24.90
2018-06-08T09:51:23.831Z,24.60
2018-06-08T09:53:52.911Z,24.60
2018-06-08T09:56:21.924Z,24.80
2018-06-08T09:58:51.011Z,24.90
2018-06-08T10:01:20.015Z,24.80
2018-06-08T10:03:49.076Z,24.60
2018-06-08T10:06:18.176Z,24.60
2018-06-08T10:08:47.292Z,24.70
2018-06-08T10:11:16.374Z,24.90
2018-06-08T10:13:45.562Z,24.90
2018-06-08T10:16:15.077Z,24.90
2018-06-08T10:18:44.124Z,24.80
2018-06-08T10:21:13.186Z,24.80
2018-06-08T10:23:42.186Z,24.50
2018-06-08T10:26:11.244Z,24.20
2018-06-08T10:28:40.270Z,24.20
2018-06-08T10:31:09.374Z,24.30
2018-06-08T10:33:38.400Z,24.30
2018-06-08T10:36:08.253Z,24.30
2018-06-08T10:38:37.349Z,24.40
2018-06-08T10:41:06.394Z,24.50
2018-06-08T10:43:35.394Z,24.60
2018-06-08T10:46:04.494Z,24.50
2018-06-08T10:48:33.527Z,24.50
2018-06-08T10:51:02.596Z,24.60
2018-06-08T10:53:31.624Z,24.70
2018-06-08T10:56:00.726Z,24.90
2018-06-08T10:58:29.783Z,25.10
2018-06-08T11:00:58.798Z,25.30
2018-06-08T11:03:28.502Z,25.40
2018-06-08T11:05:57.496Z,25.60
2018-06-08T11:08:26.539Z,25.60
2018-06-08T11:10:55.606Z,25.60
2018-06-08T11:13:24.627Z,25.60
2018-06-08T11:15:53.695Z,25.60
2018-06-08T11:18:22.792Z,25.50
2018-06-08T11:20:51.863Z,25.40
2018-06-08T11:25:49.584Z,25.40
2018-06-08T11:28:18.847Z,25.50
2018-06-08T11:30:47.951Z,25.60
2018-06-08T11:33:17.052Z,25.80
2018-06-08T11:35:46.127Z,25.90
2018-06-08T11:38:15.213Z,25.70
2018-06-08T11:40:44.307Z,25.50
2018-06-08T11:43:14.234Z,25.20
2018-06-08T11:45:43.834Z,25.20
2018-06-08T11:48:12.922Z,25.30
2018-06-08T11:50:41.982Z,25.40
2018-06-08T11:53:11.075Z,25.50
2018-06-08T11:55:40.099Z,25.60
2018-06-08T11:58:09.215Z,25.60
2018-06-08T12:00:38.338Z,25.80
2018-06-08T12:03:07.411Z,26.00
2018-06-08T12:05:36.483Z,26.10
2018-06-08T12:08:05.982Z,26.20
2018-06-08T12:10:35.131Z,26.20
2018-06-08T12:13:04.281Z,26.20
2018-06-08T12:15:33.364Z,26.00
2018-06-08T12:20:31.054Z,26.10
2018-06-08T12:23:00.148Z,26.00
2018-06-08T12:25:29.200Z,25.90
2018-06-08T12:27:58.262Z,25.90
2018-06-08T12:30:27.478Z,25.80
2018-06-08T12:32:56.585Z,25.90
2018-06-08T12:35:25.584Z,25.90
2018-06-08T12:37:54.648Z,25.80
2018-06-08T12:40:23.735Z,25.70
2018-06-08T12:42:52.799Z,25.50
2018-06-08T12:45:24.745Z,25.50
2018-06-08T12:47:54.365Z,25.60
2018-06-08T12:50:23.564Z,25.80
2018-06-08T12:52:52.770Z,25.80
2018-06-08T12:55:21.854Z,25.90
2018-06-08T12:57:50.872Z,25.90
2018-06-08T13:00:19.931Z,26.10
2018-06-08T13:02:48.959Z,26.20
2018-06-08T13:05:18.091Z,26.20
2018-06-08T13:07:47.146Z,26.20
2018-06-08T13:10:16.264Z,26.10
2018-06-08T13:12:45.279Z,26.00
2018-06-08T13:15:14.324Z,26.00
2018-06-08T13:17:43.368Z,26.10
2018-06-08T13:20:12.437Z,26.20
2018-06-08T13:22:41.524Z,26.30
2018-06-08T13:25:11.121Z,26.30
2018-06-08T13:27:40.177Z,26.40
2018-06-08T13:30:09.446Z,26.40
2018-06-08T13:32:38.883Z,26.50
2018-06-08T13:35:07.959Z,26.50
2018-06-08T13:37:37.172Z,26.50
2018-06-08T13:40:06.353Z,26.30
2018-06-08T13:42:35.409Z,26.40
2018-06-08T13:45:04.639Z,26.30
2018-06-08T13:47:33.684Z,26.30
2018-06-08T13:50:02.723Z,26.20
2018-06-08T13:52:31.761Z,26.30
2018-06-08T13:55:00.799Z,26.30
2018-06-08T13:57:29.898Z,26.40
2018-06-08T13:59:58.986Z,26.40
2018-06-08T14:02:28.086Z,26.40
2018-06-08T14:04:57.203Z,26.30
2018-06-08T14:07:26.318Z,26.30
2018-06-08T14:09:55.397Z,26.30
2018-06-08T14:12:24.380Z,26.30
2018-06-08T14:14:53.420Z,26.30
2018-06-08T14:17:22.591Z,26.30
2018-06-08T14:19:51.633Z,26.40
2018-06-08T14:24:49.250Z,26.50
2018-06-08T14:27:18.267Z,26.60
2018-06-08T14:29:47.306Z,26.60
2018-06-08T14:32:17.388Z,26.60
2018-06-08T14:34:46.466Z,26.60
2018-06-08T14:37:15.505Z,26.60
2018-06-08T14:39:44.542Z,26.70
2018-06-08T14:42:13.622Z,26.70
2018-06-08T14:44:42.660Z,26.70
2018-06-08T14:47:11.812Z,26.70
2018-06-08T14:49:40.827Z,26.60
2018-06-08T14:52:09.891Z,26.60
2018-06-08T14:54:38.919Z,26.60
2018-06-08T14:57:08.024Z,26.60
2018-06-08T14:59:37.110Z,26.60
2018-06-08T15:02:06.218Z,26.60
2018-06-08T15:04:35.423Z,26.50
2018-06-08T15:07:04.531Z,26.40
2018-06-08T15:09:33.661Z,26.50
2018-06-08T15:12:02.703Z,26.40
2018-06-08T15:14:31.740Z,26.30
2018-06-08T15:17:00.788Z,26.40
2018-06-08T15:19:29.825Z,26.40
2018-06-08T15:21:58.851Z,26.40
2018-06-08T15:24:27.935Z,26.50
2018-06-08T15:26:56.964Z,26.50
2018-06-08T15:29:25.992Z,26.50
2018-06-08T15:31:55.102Z,26.40
2018-06-08T15:34:24.232Z,26.40
2018-06-08T15:36:53.348Z,26.40
2018-06-08T15:39:22.379Z,26.40
2018-06-08T15:41:51.457Z,26.40
2018-06-08T15:44:20.518Z,26.20
2018-06-08T15:46:49.593Z,25.70
2018-06-08T15:49:18.592Z,25.40
2018-06-08T15:51:47.647Z,25.00
2018-06-08T15:54:16.758Z,24.60
2018-06-08T15:56:45.728Z,23.50
2018-06-08T15:59:14.794Z,22.30
2018-06-08T16:01:43.832Z,21.30
2018-06-08T16:04:13.064Z,20.60
2018-06-08T16:06:42.244Z,20.10
2018-06-08T16:09:11.350Z,19.80
2018-06-08T16:11:40.514Z,19.70
2018-06-08T16:14:09.713Z,19.60
2018-06-08T16:16:38.823Z,19.60
2018-06-08T16:19:07.872Z,19.60
2018-06-08T16:21:36.979Z,19.70
2018-06-08T16:24:06.107Z,19.80
2018-06-08T16:26:35.333Z,20.00
2018-06-08T16:29:04.501Z,20.10
2018-06-08T16:31:33.625Z,20.20
2018-06-08T16:34:02.751Z,20.30
2018-06-08T16:36:31.867Z,20.40
2018-06-08T16:39:00.939Z,20.50
2018-06-08T16:41:29.990Z,20.50
2018-06-08T16:43:59.015Z,20.50
2018-06-08T16:46:28.086Z,20.50
2018-06-08T16:48:57.265Z,20.60
2018-06-08T16:51:26.351Z,20.70
2018-06-08T16:53:55.386Z,20.80
2018-06-08T16:56:24.444Z,20.80
2018-06-08T16:58:53.468Z,21.00
2018-06-08T17:01:22.519Z,21.10
2018-06-08T17:06:20.081Z,21.20
2018-06-08T17:08:49.062Z,21.30
2018-06-08T17:11:18.115Z,21.30
2018-06-08T17:13:47.148Z,21.30
2018-06-08T17:16:16.256Z,21.30
2018-06-08T17:18:45.357Z,21.30
2018-06-08T17:21:14.421Z,21.20
2018-06-08T17:23:43.502Z,21.20
2018-06-08T17:26:12.513Z,21.20
2018-06-08T17:28:41.543Z,21.20
2018-06-08T17:31:10.595Z,21.20
2018-06-08T17:33:39.693Z,21.10
2018-06-08T17:36:08.775Z,21.00
2018-06-08T17:38:37.761Z,20.90
2018-06-08T17:41:06.893Z,20.80
2018-06-08T17:43:36.681Z,20.90
2018-06-08T17:46:05.885Z,20.80
2018-06-08T17:48:34.979Z,20.70
2018-06-08T17:51:04.117Z,20.70
2018-06-08T17:53:33.583Z,20.70
2018-06-08T17:56:02.859Z,20.70
2018-06-08T17:58:31.982Z,20.60
2018-06-08T18:01:00.986Z,20.60
2018-06-08T18:03:30.073Z,20.60
2018-06-08T18:05:59.127Z,20.60
2018-06-08T18:08:28.156Z,20.60
2018-06-08T18:10:57.219Z,20.50
2018-06-08T18:13:26.247Z,20.50
2018-06-08T18:15:56.139Z,20.50
2018-06-08T18:18:25.209Z,20.50
2018-06-08T18:20:54.240Z,20.50
2018-06-08T18:23:23.292Z,20.40
2018-06-08T18:25:52.314Z,20.40
2018-06-08T18:28:21.351Z,20.30
2018-06-08T18:30:50.419Z,20.30
2018-06-08T18:33:19.500Z,20.30
2018-06-08T18:35:48.516Z,20.30
2018-06-08T18:38:17.909Z,20.20
2018-06-08T18:40:46.987Z,20.20
2018-06-08T18:43:16.309Z,20.20
2018-06-08T18:45:45.397Z,20.20
2018-06-08T18:48:14.435Z,20.10
2018-06-08T18:50:43.612Z,20.10
2018-06-08T18:53:12.611Z,20.10
2018-06-08T18:55:41.649Z,20.00
2018-06-08T18:58:10.683Z,20.00
2018-06-08T19:00:39.742Z,20.00
2018-06-08T19:03:08.818Z,19.90
2018-06-08T19:05:37.813Z,19.90
2018-06-08T19:08:06.840Z,19.90
2018-06-08T19:10:35.847Z,19.80
2018-06-08T19:13:04.955Z,19.70
2018-06-08T19:15:34.820Z,19.60
2018-06-08T19:18:03.904Z,19.60
2018-06-08T19:20:32.907Z,19.50
2018-06-08T19:23:01.940Z,19.50
2018-06-08T19:25:31.000Z,19.40
2018-06-08T19:28:00.369Z,19.40
2018-06-08T19:32:58.486Z,19.30
2018-06-08T19:35:27.543Z,19.20
2018-06-08T19:37:57.275Z,19.20
2018-06-08T19:40:27.191Z,19.10
2018-06-08T19:42:56.498Z,19.10
2018-06-08T19:45:25.534Z,19.00
2018-06-08T19:47:54.516Z,19.10
2018-06-08T19:50:24.462Z,19.20
2018-06-08T19:52:53.523Z,19.10
2018-06-08T19:55:22.584Z,19.20
2018-06-08T19:57:51.649Z,19.10
2018-06-08T20:00:20.690Z,19.10
2018-06-08T20:02:49.790Z,19.10
2018-06-08T20:05:18.814Z,19.10
2018-06-08T20:07:47.879Z,19.10
2018-06-08T20:10:16.905Z,19.10
2018-06-08T20:12:46.010Z,19.00
2018-06-08T20:15:15.040Z,18.90
2018-06-08T20:17:44.099Z,18.90
2018-06-08T20:20:13.111Z,18.80
2018-06-08T20:22:42.147Z,18.80
2018-06-08T20:25:11.163Z,18.90
2018-06-08T20:27:40.230Z,18.80
2018-06-08T20:30:09.259Z,18.80
2018-06-08T20:32:38.227Z,18.70
2018-06-08T20:35:07.285Z,18.60
2018-06-08T20:37:36.294Z,18.60
2018-06-08T20:40:05.458Z,18.60
2018-06-08T20:42:34.464Z,18.60
2018-06-08T20:45:03.528Z,18.50
2018-06-08T20:47:32.531Z,18.60
2018-06-08T20:50:01.949Z,18.50
2018-06-08T20:52:31.019Z,18.50
2018-06-08T20:55:00.047Z,18.40
2018-06-08T20:57:29.832Z,18.30
2018-06-08T20:59:58.852Z,18.30
2018-06-08T21:02:27.907Z,18.30
2018-06-08T21:04:56.908Z,18.20
2018-06-08T21:07:25.960Z,18.20
2018-06-08T21:09:54.953Z,18.20
2018-06-08T21:12:24.039Z,18.20
2018-06-08T21:14:53.112Z,18.10
2018-06-08T21:17:22.141Z,18.10
2018-06-08T21:19:51.200Z,18.10
2018-06-08T21:22:20.215Z,18.00
2018-06-08T21:24:49.248Z,18.00
2018-06-08T21:27:18.271Z,18.00
2018-06-08T21:29:48.268Z,17.90
2018-06-08T21:32:17.339Z,17.90
2018-06-08T21:34:46.404Z,17.90
2018-06-08T21:37:15.925Z,17.80
2018-06-08T21:39:44.920Z,17.80
2018-06-08T21:42:13.947Z,17.80
2018-06-08T21:44:43.004Z,17.80
2018-06-08T21:47:12.025Z,17.70
2018-06-08T21:49:41.066Z,17.70
2018-06-08T21:52:10.277Z,17.70
2018-06-08T21:54:39.326Z,17.70
2018-06-08T21:57:08.318Z,17.60
2018-06-08T21:59:37.374Z,17.60
2018-06-08T22:02:06.439Z,17.60
2018-06-08T22:04:35.511Z,17.50
2018-06-08T22:07:04.520Z,17.50
2018-06-08T22:09:33.555Z,17.50
2018-06-08T22:12:02.591Z,17.40
2018-06-08T22:14:31.666Z,17.40
2018-06-08T22:17:00.727Z,17.40
2018-06-08T22:19:29.804Z,17.40
2018-06-08T22:21:58.854Z,17.40
2018-06-08T22:24:27.898Z,17.40
2018-06-08T22:26:56.882Z,17.40
2018-06-08T22:29:25.946Z,17.50
2018-06-08T22:34:23.564Z,17.50
2018-06-08T22:36:52.590Z,17.50
2018-06-08T22:39:21.667Z,17.40
2018-06-08T22:41:50.711Z,17.40
2018-06-08T22:44:19.742Z,17.40
2018-06-08T22:46:48.820Z,17.40
2018-06-08T22:49:17.844Z,17.40
2018-06-08T22:51:46.922Z,17.40
2018-06-08T22:54:15.991Z,17.40
2018-06-08T22:56:45.016Z,17.50
2018-06-08T22:59:14.079Z,17.40
2018-06-08T23:01:43.104Z,17.40
2018-06-08T23:04:12.327Z,17.40
2018-06-08T23:06:42.252Z,17.40
2018-06-08T23:09:11.297Z,17.30
2018-06-08T23:11:40.302Z,17.30
2018-06-08T23:14:09.391Z,17.30
2018-06-08T23:16:38.412Z,17.20
2018-06-08T23:19:07.424Z,17.20
2018-06-08T23:21:36.438Z,17.20
2018-06-08T23:24:05.474Z,17.20
2018-06-08T23:26:34.679Z,17.20
2018-06-08T23:29:03.682Z,17.20
2018-06-08T23:34:01.343Z,17.20
2018-06-08T23:36:30.334Z,17.10
2018-06-08T23:38:59.378Z,17.10
2018-06-08T23:41:28.398Z,17.20
2018-06-08T23:43:57.407Z,17.10
2018-06-08T23:46:26.403Z,17.10
2018-06-08T23:48:55.582Z,17.10
2018-06-08T23:51:24.586Z,17.10
2018-06-08T23:53:53.680Z,17.10
2018-06-08T23:56:23.303Z,17.10
